Ana Sayfa
METAR-TAF:

METAR-TAF

Havaalanları :

Şam Havalimanı

Şam, Suriye

Enlem: 33-25N, Boylam: 036-31E, yükseklik: 608 m

Güncel hava durumu gözlemi

Rapor saat 04:00 UTC de 55 dakika önce yapıldı.
Rüzgar güneybatıdan 5 kt
Sıcaklık 21°C
Nem 56%
Basınç 1007 hPa
Görüş mesafesi 10 km veya daha fazla
1500 m altında bulut yok ve kümülonimbus yok

METAR: OSDI 160400Z 22005KT CAVOK 21/12 Q1007

Saat: 07:55 (04:55 UTC)

Tahmin

Rapor saat 10:00 UTC de 18 saat ve 55 dakika önce yapıldı.
Ayın 15'si saat 12 UTC'den ayın 16'si saat 18 UTC'ye kadar geçerli Tahmin
Rüzgar güneybatıdan 15 kt
Görüş mesafesi 10 km veya daha fazla
1500 m altında bulut yok ve kümülonimbus yok
Geçici
ayın 15'si saat 12 UTC'den ayın 15'si saat 18 UTC'ye kadar
Rüzgar batı/güneybatıdan 20 kt ve 35 kt'a kadar ani rüzgarlar
Görüş mesafesi 10 km veya daha fazla
3000 ft yükseklikte az bulutlu

TAF: OSDI 151000Z 1512/1618 22015KT CAVOK TEMPO 1512/1518 25020G35KT 9999 FEW030

4.000'den fazla havaalanı için hava durumu gözlemleri ve tahminleri (METAR ve TAF raporları).

Kullanılabilir istasyonlar harita üzerinde sarı ve kırmızı noktalarla gösterilir.

İstasyonun adını görmek için fareyi noktanın üzerinde gezdirin.

Sonrasında hava gözlem ve tahminlerini görmek için tıklayın.

Haritayı değiştirmek için: yaklaştırmak için siyah artı işaretli yeşil düğmeye ve uzaklaştırmak için de eksi işaretli düğmeye hızla tıklayın; bitişik haritalar için yeşil okları kullanın.


METAR-TAF: